Boyd Deep Canyon Reserve, California Weather observations

Data are for 10 minute period ending at time listed.
 Day   Time   Solar   Ave.   Ave.  Ave.  Vector  Max.   Baro.   Total    
  of    of     Rad.   Air    Rel.  Wind   Wind   Wind  Press.  Precip.   
Year   Day            Temp.  Hum.  Speed  Dir.   Gust                    
2015   (PST)  Kw/m2    F      %     mph   deg.    mph    mb.     in.     
-------------------------------------------------------------------------
 114   22:10   0.00   63.4    51    3.6   225    13.4   976.2    0.00 
 114   22:20   0.00   63.8    46    7.3   195    13.1   976.0    0.00 
 114   22:30   0.00   63.9    46   11.7   194    19.7   976.0    0.00 
 114   22:40   0.00   63.5    46   13.3   178    23.7   976.0    0.00 
 114   22:50   0.00   63.2    47   13.0   178    18.3   976.0    0.00 
 114   23:00   0.00   63.2    47   12.5   196    24.1   976.2    0.00 
 114   23:10   0.00   62.8    48   10.1   188    19.4   976.2    0.00 
 114   23:20   0.00   62.5    49    9.4   190    17.1   976.1    0.00 
 114   23:30   0.00   62.3    49   14.7   213    27.0   976.0    0.00 
 114   23:40   0.00   62.2    50   13.2   207    25.9   976.0    0.00 
 114   23:50   0.00   62.2    49   15.3   196    27.1   975.9    0.00 
 115    0:00   0.00   62.3    49   11.7   190    20.0   975.8    0.00 
 115    0:10   0.00   62.2    48   12.7   198    22.6   975.7    0.00 
 115    0:20   0.00   62.5    47   10.4   195    19.1   975.6    0.00 
 115    0:30   0.00   62.5    47   10.8   177    18.1   975.5    0.00 
 115    0:40   0.00   62.9    45   11.8   177    17.2   975.5    0.00 
 115    0:50   0.00   62.9    44   11.4   181    18.7   975.5    0.00 
 115    1:00   0.00   62.9    44   13.7   214    24.5   975.5    0.00 
 115    1:10   0.00   62.9    44   11.6   219    22.9   975.5    0.00 
 115    1:20   0.00   62.4    45    5.3   225    19.1   975.5    0.00 
 115    1:30   0.00   62.1    48    7.2   255    10.2   975.5    0.00 
 115    1:40   0.00   61.6    51    6.2   239    12.6   975.7    0.00 
 115    1:50   0.00   61.1    53    2.2   231     4.5   975.5    0.00 
 115    2:00   0.00   61.8    46    7.4   177    14.7   975.4    0.00 
 115    2:10   0.00   62.1    45   10.3   184    22.9   975.3    0.00 
 115    2:20   0.00   62.3    45   12.6   175    22.4   975.2    0.00 
 115    2:30   0.00   62.0    46   12.2   183    21.2   975.3    0.00 
 115    2:40   0.00   61.6    48   13.6   178    19.5   975.2    0.00 
 115    2:50   0.00   61.7    47    9.5   186    15.6   975.2    0.00 
 115    3:00   0.00   61.4    50    5.7   226    11.0   975.3    0.00 
 115    3:10   0.00   61.1    51    4.3   212     7.2   975.3    0.00 
 115    3:20   0.00   61.2    49    3.6   197     8.8   975.4    0.00 
 115    3:30   0.00   61.2    48    4.5   213    10.1   975.5    0.00 
 115    3:40   0.00   61.8    45    6.4   206    12.9   975.4    0.00 
 115    3:50   0.00   61.7    45   11.5   201    23.0   975.4    0.00 
 115    4:00   0.00   61.7    45   11.9   195    24.9   975.3    0.00 
 115    4:10   0.00   61.6    45   10.2   209    19.1   975.4    0.00 
 115    4:20   0.00   61.8    44   12.8   205    23.7   975.5    0.00 
 115    4:30   0.00   61.8    44   10.8   206    23.7   975.7    0.00 
 115    4:40   0.00   61.3    48   10.4   195    19.1   975.8    0.00 
 115    4:50   0.00   61.2    47   11.9   200    20.5   975.7    0.00 
 115    5:00   0.00   61.4    46   13.4   178    24.0   975.8    0.00 
 115    5:10   0.00   61.5    46   13.8   174    24.2   975.7    0.00 
 115    5:20   0.01   61.4    46   13.1   197    26.2   975.8    0.00 
 115    5:30   0.03   61.7    45   15.7   182    25.4   975.8    0.00 
 115    5:40   0.04   61.7    46   13.4   189    21.1   976.0    0.00 
 115    5:50   0.06   62.0    45   13.0   174    25.4   975.9    0.00 
 115    6:00   0.10   62.4    44   10.9   213    19.2   975.8    0.00 
 115    6:10   0.15   63.5    42    8.0   200    18.6   975.8    0.00 
 115    6:20   0.11   63.6    41   10.3   192    22.1   975.9    0.00 
 115    6:30   0.08   62.9    46    3.2   269     9.5   976.2    0.00 
 115    6:40   0.10   62.7    47    2.7   318     6.3   976.2    0.00 
 115    6:50   0.11   62.3    48    2.6   308     5.6   976.4    0.00 
 115    7:00   0.10   62.2    49    5.4    34     9.7   976.3    0.00 
 115    7:10   0.08   61.2    55    6.5    95    14.1   976.5    0.00 
 115    7:20   0.09   60.9    56    7.0    96    14.0   976.6    0.00 
 115    7:30   0.10   60.9    56    8.3    78    14.2   976.7    0.00 
 115    7:40   0.10   61.2    56    8.4    69    12.3   976.5    0.00 
 115    7:50   0.08   61.3    55    9.4    76    14.0   976.4    0.00 
 115    8:00   0.09   61.6    54    5.5    57    12.0   976.6    0.00 
 115    8:10   0.09   61.9    52    5.5    75     9.3   976.5    0.00 
 115    8:20   0.19   62.4    51    8.3    64    14.5   976.2    0.00 
 115    8:30   0.24   62.4    50   10.6    74    16.1   976.2    0.00 
 115    8:40   0.22   63.0    48   10.3    74    18.3   976.1    0.00 
 115    8:50   0.22   63.3    48    5.9    65    17.1   976.4    0.00 
 115    9:00   0.49   63.8    47    5.5    72    11.9   976.6    0.00 
 115    9:10   0.82   65.0    46    4.6   106    11.1   976.8    0.00 
 115    9:20   0.79   66.1    45    5.7    73    10.4   976.8    0.00 
 115    9:30   0.74   65.2    45    9.9    80    17.4   976.7    0.00 
 115    9:40   0.88   66.7    41    8.6    84    16.9   976.5    0.00 
 115    9:50   0.66   68.1    38    6.7    28    12.6   976.7    0.00 
 115   10:00   0.90   67.5    39    7.5    71    12.4   976.6    0.00 
 115   10:10   0.91   70.0    34    4.3    32    10.2   976.5    0.00 
 115   10:20   0.49   68.3    36    4.8   334    14.8   976.5    0.00 
 115   10:30   0.28   67.4    35   11.3   205    25.1   976.4    0.00 
 115   10:40   0.28   67.6    34    8.5   176    26.5   976.4    0.00 
 115   10:50   0.34   67.3    35    9.1   186    24.5   976.3    0.00 
 115   11:00   0.28   67.8    35   12.0   216    31.2   976.1    0.00 
 115   11:10   0.45   67.9    34   13.1   187    27.2   976.1    0.00 
 115   11:20   0.35   67.7    35   17.8   192    34.4   976.0    0.00 
 115   11:30   0.32   67.0    38   16.9   198    30.7   976.0    0.00 
 115   11:40   0.33   66.3    42   17.0   197    30.0   975.7    0.00 
 115   11:50   0.31   66.1    40   21.5   177    34.4   975.5    0.00 
 115   12:00   0.30   65.8    42   21.2   184    34.5   975.5    0.00 
 115   12:10   0.30   64.7    49   16.6   181    25.4   975.7    0.00 
 115   12:20   0.40   64.2    49   16.6   181    30.8   975.7    0.00 
 115   12:30   0.37   64.6    47   18.4   180    38.8   975.5    0.00 
 115   12:40   0.41   64.3    47   19.4   183    35.3   975.3    0.00 
 115   12:50   0.40   64.1    47   20.8   186    41.3   975.1    0.00 
 115   13:00   0.36   64.0    47   19.5   198    36.2   975.2    0.00 
 115   13:10   0.35   63.9    47   16.3   202    32.9   975.0    0.00 
 115   13:20   0.38   63.6    48   21.8   199    37.1   974.8    0.00 
 115   13:30   0.36   63.5    49   20.9   196    45.2   974.8    0.00 
 115   13:40   0.63   63.9    48   17.1   190    45.2   974.7    0.00 
 115   13:50   0.39   64.5    46    9.1   181    24.1   974.7    0.00 
 115   14:00   0.43   65.7    44    5.2   184    19.3   974.8    0.00 
 115   14:10   0.39   65.4    45   10.9   198    28.9   974.8    0.00 
 115   14:20   0.51   64.7    46   10.4   171    25.9   974.5    0.00 
 115   14:30   0.77   65.9    44    8.1   178    19.1   974.2    0.00 
 115   14:40   0.81   65.9    45   10.2   185    24.5   974.1    0.00 
 115   14:50   0.85   66.1    44   12.4   171    30.4   973.8    0.00 
 115   15:00   0.81   65.6    47   17.4   197    34.6   973.8    0.00 
 115   15:10   0.76   64.9    49   16.8   199    32.5   973.8    0.00 
 115   15:20   0.74   65.2    48   14.9   198    30.0   973.7    0.00 
 115   15:30   0.68   65.5    46   11.0   201    25.5   973.5    0.00 
 115   15:40   0.42   65.2    48    5.2   204    17.0   973.5    0.00 
 115   15:50   0.52   65.9    46    9.0   185    25.1   973.6    0.00 
 115   16:00   0.41   65.5    47   18.2   200    32.7   973.5    0.00 
 115   16:10   0.33   64.3    50   22.4   197    33.5   973.3    0.00 
 115   16:20   0.39   64.3    50   20.4   201    35.4   973.1    0.00 
 115   16:30   0.38   64.2    50   15.6   220    35.8   972.8    0.00 
 115   16:40   0.34   64.8    48    8.4   220    20.9   972.6    0.00 
 115   16:50   0.32   65.2    47   13.0   222    28.9   972.6    0.00 
 115   17:00   0.26   64.4    50   17.6   215    32.7   972.5    0.00 
 115   17:10   0.23   64.0    51   19.1   228    33.8   971.8    0.00 
 115   17:20   0.12   63.8    52   22.5   224    48.2   971.7    0.00 
 115   17:30   0.05   63.5    53   17.6   217    37.3   972.1    0.00 
 115   17:40   0.05   63.9    52   12.6   225    27.0   972.4    0.00 
 115   17:50   0.04   64.2    51   10.0   205    22.9   972.5    0.00 
 115   18:00   0.03   63.6    53   13.2   207    33.2   972.6    0.00 
 115   18:10   0.01   64.3    50   10.2   221    21.3   972.7    0.00 
 115   18:20   0.00   63.7    53   11.1   189    20.2   972.8    0.00 
 115   18:30   0.00   63.6    52    7.4   232    14.8   973.0    0.00 
 115   18:40   0.00   64.6    48    8.8   250    23.2   973.1    0.00 
 115   18:50   0.00   63.9    51    9.4   188    18.3   973.3    0.00 
 115   19:00   0.00   63.4    53    7.1   181    11.2   973.5    0.00 
 115   19:10   0.00   63.5    52    8.9   188    16.6   973.8    0.00 
 115   19:20   0.00   63.9    50    9.4   214    13.9   973.9    0.00 
 115   19:30   0.00   64.0    51   11.3   221    22.6   974.0    0.00 
 115   19:40   0.00   63.1    54   10.8   214    15.4   974.1    0.00 
 115   19:50   0.00   63.0    55   11.1   226    24.5   974.1    0.00 
 115   20:00   0.00   62.5    55   11.8   216    24.2   974.2    0.00 
 115   20:10   0.00   62.6    54   15.1   207    27.6   974.2    0.00 
 115   20:20   0.00   62.5    52   17.2   178    25.8   974.0    0.00 
 115   20:30   0.00   62.9    49   14.1   194    24.9   973.9    0.00 
 115   20:40   0.00   63.6    44   14.6   204    26.3   973.9    0.00 
 115   20:50   0.00   64.2    42   15.3   220    23.2   974.1    0.00 
 115   21:00   0.00   64.2    42   11.9   217    19.1   974.3    0.00 
 115   21:10   0.00   64.0    43    7.4   233    13.7   974.6    0.00 
 115   21:20   0.00   63.9    43    5.9   232    12.9   974.8    0.00 
 115   21:30   0.00   63.4    44    6.2   188    11.4   974.8    0.00 
 115   21:40   0.00   63.4    44    8.5   185    18.1   974.8    0.00 
 115   21:50   0.00   63.4    42   10.7   204    18.9   974.7    0.00 
 115   22:00   0.00   63.1    42   12.0   185    23.8   974.5    0.00 

Return to Boyd Deep Canyon Reserve graphs page.


Western Regional Climate Center,wrcc@dri.edu